createdAt,value
2023-08-01T00:00:46.965Z,20.30
2023-08-01T00:03:49.159Z,20.30
2023-08-01T00:06:51.632Z,20.20
2023-08-01T00:09:53.751Z,20.40
2023-08-01T00:12:55.911Z,20.30
2023-08-01T00:19:03.080Z,20.30
2023-08-01T00:22:05.202Z,20.20
2023-08-01T00:25:08.409Z,20.20
2023-08-01T00:28:10.633Z,20.30
2023-08-01T00:31:15.545Z,20.40
2023-08-01T00:34:20.793Z,20.20
2023-08-01T00:37:23.232Z,20.20
2023-08-01T00:40:30.821Z,20.20
2023-08-01T00:43:32.941Z,20.20
2023-08-01T00:46:35.393Z,20.20
2023-08-01T00:49:37.820Z,20.40
2023-08-01T00:52:40.731Z,20.30
2023-08-01T00:55:43.284Z,20.20
2023-08-01T00:58:48.198Z,20.20
2023-08-01T01:01:50.888Z,20.20
2023-08-01T01:04:53.149Z,20.20
2023-08-01T01:07:56.051Z,20.20
2023-08-01T01:10:58.224Z,20.30
2023-08-01T01:14:00.505Z,20.40
2023-08-01T01:17:03.954Z,20.40
2023-08-01T01:20:06.622Z,20.40
2023-08-01T01:23:10.667Z,20.40
2023-08-01T01:26:13.837Z,20.40
2023-08-01T01:29:18.414Z,20.30
2023-08-01T01:32:22.677Z,20.20
2023-08-01T01:35:25.302Z,20.30
2023-08-01T01:38:29.942Z,20.20
2023-08-01T01:41:32.760Z,20.30
2023-08-01T01:44:34.958Z,20.20
2023-08-01T01:47:37.233Z,20.20
2023-08-01T01:50:39.433Z,20.10
2023-08-01T01:53:44.071Z,20.10
2023-08-01T01:56:46.361Z,20.10
2023-08-01T01:59:48.762Z,20.20
2023-08-01T02:02:50.975Z,20.20
2023-08-01T02:05:53.168Z,20.10
2023-08-01T02:08:55.860Z,20.20
2023-08-01T02:12:00.164Z,20.20
2023-08-01T02:15:02.528Z,20.30
2023-08-01T02:18:04.669Z,20.30
2023-08-01T02:21:07.607Z,20.20
2023-08-01T02:24:09.943Z,20.20
2023-08-01T02:27:12.156Z,20.30
2023-08-01T02:30:16.932Z,20.20
2023-08-01T02:33:19.491Z,20.30
2023-08-01T02:36:21.982Z,20.20
2023-08-01T02:39:24.194Z,20.30
2023-08-01T02:42:26.430Z,20.30
2023-08-01T02:45:29.051Z,20.40
2023-08-01T02:48:32.073Z,20.40
2023-08-01T02:51:34.351Z,20.40
2023-08-01T02:54:36.513Z,20.40
2023-08-01T02:57:39.129Z,20.40
2023-08-01T03:00:41.276Z,20.40
2023-08-01T03:03:43.626Z,20.40
2023-08-01T03:06:45.874Z,20.40
2023-08-01T03:09:48.691Z,20.50
2023-08-01T03:12:50.845Z,20.40
2023-08-01T03:15:53.093Z,20.40
2023-08-01T03:18:55.306Z,20.40
2023-08-01T03:21:58.388Z,20.30
2023-08-01T03:25:00.770Z,20.30
2023-08-01T03:28:05.640Z,20.20
2023-08-01T03:31:08.281Z,20.20
2023-08-01T03:34:10.513Z,20.10
2023-08-01T03:37:12.694Z,20.10
2023-08-01T03:40:14.912Z,20.10
2023-08-01T03:43:17.175Z,20.10
2023-08-01T03:46:19.248Z,20.10
2023-08-01T03:49:21.843Z,20.00
2023-08-01T03:52:23.959Z,20.10
2023-08-01T03:55:26.075Z,20.10
2023-08-01T03:58:28.465Z,20.00
2023-08-01T04:01:31.356Z,20.00
2023-08-01T04:04:33.967Z,20.00
2023-08-01T04:07:39.512Z,19.90
2023-08-01T04:10:41.646Z,20.00
2023-08-01T04:13:43.864Z,20.00
2023-08-01T04:16:45.978Z,20.00
2023-08-01T04:19:48.031Z,20.00
2023-08-01T04:22:50.166Z,20.00
2023-08-01T04:25:52.381Z,19.90
2023-08-01T04:28:54.531Z,20.00
2023-08-01T04:31:56.606Z,20.00
2023-08-01T04:34:58.744Z,20.00
2023-08-01T04:38:00.952Z,20.00
2023-08-01T04:41:03.111Z,20.10
2023-08-01T04:44:05.162Z,20.10
2023-08-01T04:47:07.603Z,20.10
2023-08-01T04:50:10.022Z,20.00
2023-08-01T04:53:12.334Z,20.00
2023-08-01T04:56:14.514Z,19.90
2023-08-01T04:59:16.782Z,20.00
2023-08-01T05:02:18.875Z,20.00
2023-08-01T05:05:21.112Z,20.00
2023-08-01T05:08:23.217Z,20.00
2023-08-01T05:11:28.443Z,20.10
2023-08-01T05:14:30.501Z,19.90
2023-08-01T05:17:33.172Z,19.90
2023-08-01T05:20:35.280Z,19.90
2023-08-01T05:23:37.304Z,19.90
2023-08-01T05:26:39.689Z,20.00
2023-08-01T05:29:42.355Z,20.00
2023-08-01T05:32:44.497Z,20.00
2023-08-01T05:35:46.628Z,19.90
2023-08-01T05:38:48.748Z,19.90
2023-08-01T05:41:50.851Z,19.90
2023-08-01T05:44:52.974Z,19.80
2023-08-01T05:47:55.021Z,19.90
2023-08-01T05:50:57.233Z,19.90
2023-08-01T05:53:59.260Z,19.80
2023-08-01T05:57:01.445Z,19.90
2023-08-01T06:00:04.648Z,19.70
2023-08-01T06:03:18.216Z,19.70
2023-08-01T06:06:20.416Z,19.70
2023-08-01T06:09:24.385Z,19.70
2023-08-01T06:12:26.796Z,19.70
2023-08-01T06:15:28.800Z,19.60
2023-08-01T06:18:30.902Z,19.60
2023-08-01T06:21:33.485Z,19.50
2023-08-01T06:24:35.683Z,19.50
2023-08-01T06:27:38.841Z,19.50
2023-08-01T06:30:40.940Z,19.50
2023-08-01T06:33:43.514Z,19.50
2023-08-01T06:36:45.639Z,19.40
2023-08-01T06:39:47.961Z,19.50
2023-08-01T06:42:50.058Z,19.40
2023-08-01T06:45:52.081Z,19.50
2023-08-01T06:48:54.148Z,19.40
2023-08-01T06:51:56.161Z,19.50
2023-08-01T06:54:58.191Z,19.50
2023-08-01T06:58:00.628Z,19.50
2023-08-01T07:01:02.715Z,19.60
2023-08-01T07:04:04.952Z,19.50
2023-08-01T07:07:06.956Z,19.60
2023-08-01T07:10:10.188Z,19.60
2023-08-01T07:13:12.422Z,19.80
2023-08-01T07:16:14.431Z,20.00
2023-08-01T07:19:16.566Z,19.90
2023-08-01T07:22:18.514Z,19.90
2023-08-01T07:25:20.542Z,19.90
2023-08-01T07:28:22.514Z,19.90
2023-08-01T07:31:24.589Z,19.80
2023-08-01T07:34:26.533Z,19.90
2023-08-01T07:37:28.554Z,19.80
2023-08-01T07:40:30.612Z,19.90
2023-08-01T07:43:32.819Z,19.90
2023-08-01T07:46:34.752Z,19.90
2023-08-01T07:49:36.765Z,19.90
2023-08-01T07:52:38.793Z,19.90
2023-08-01T07:55:40.860Z,20.00
2023-08-01T07:58:42.912Z,20.10
2023-08-01T08:01:44.861Z,20.10
2023-08-01T08:04:46.878Z,20.10
2023-08-01T08:07:48.921Z,20.00
2023-08-01T08:10:50.899Z,20.00
2023-08-01T08:13:52.867Z,20.00
2023-08-01T08:16:54.981Z,20.10
2023-08-01T08:19:57.066Z,20.10
2023-08-01T08:22:59.089Z,20.20
2023-08-01T08:26:01.447Z,20.20
2023-08-01T08:29:03.459Z,20.30
2023-08-01T08:32:05.618Z,20.40
2023-08-01T08:35:07.838Z,20.40
2023-08-01T08:38:09.859Z,20.30
2023-08-01T08:41:14.427Z,20.30
2023-08-01T08:44:18.434Z,20.40
2023-08-01T08:47:24.726Z,20.40
2023-08-01T08:50:30.348Z,20.60
2023-08-01T08:53:32.813Z,20.90
2023-08-01T08:56:35.563Z,21.10
2023-08-01T08:59:38.384Z,21.10
2023-08-01T09:02:40.869Z,22.70
2023-08-01T09:05:46.978Z,22.50
2023-08-01T09:08:56.721Z,23.50
2023-08-01T09:12:00.672Z,24.60
2023-08-01T09:15:02.798Z,25.60
2023-08-01T09:18:08.338Z,26.00
2023-08-01T09:21:10.578Z,26.40
2023-08-01T09:24:17.174Z,25.50
2023-08-01T09:27:19.319Z,25.50
2023-08-01T09:30:21.786Z,25.00
2023-08-01T09:33:24.041Z,24.00
2023-08-01T09:36:28.736Z,23.50
2023-08-01T09:39:31.302Z,23.00
2023-08-01T09:42:44.572Z,22.70
2023-08-01T09:45:55.968Z,22.90
2023-08-01T09:49:08.588Z,23.10
2023-08-01T09:52:10.611Z,23.40
2023-08-01T09:55:12.663Z,23.00
2023-08-01T09:58:17.181Z,23.70
2023-08-01T10:01:23.249Z,23.70
2023-08-01T10:04:30.101Z,24.60
2023-08-01T10:07:33.598Z,25.10
2023-08-01T10:10:36.685Z,24.50
2023-08-01T10:13:39.127Z,24.40
2023-08-01T10:16:42.461Z,24.30
2023-08-01T10:19:45.718Z,24.40
2023-08-01T10:22:51.039Z,25.60
2023-08-01T10:25:53.872Z,26.10
2023-08-01T10:28:55.913Z,26.50
2023-08-01T10:32:00.801Z,26.00
2023-08-01T10:35:03.822Z,26.80
2023-08-01T10:38:13.279Z,27.20
2023-08-01T10:41:34.613Z,26.80
2023-08-01T10:44:47.366Z,27.20
2023-08-01T10:47:51.234Z,26.60
2023-08-01T11:03:24.264Z,26.80
2023-08-01T11:06:26.498Z,25.70
2023-08-01T11:09:29.398Z,25.90
2023-08-01T11:12:34.557Z,25.80
2023-08-01T11:15:38.870Z,25.50
2023-08-01T11:18:44.594Z,25.20
2023-08-01T11:21:46.789Z,24.80
2023-08-01T11:24:51.922Z,24.60
2023-08-01T11:27:54.209Z,24.40
2023-08-01T11:30:56.372Z,24.70
2023-08-01T11:33:59.387Z,24.70
2023-08-01T11:37:01.700Z,25.20
2023-08-01T11:40:04.243Z,24.80
2023-08-01T11:43:06.245Z,24.70
2023-08-01T11:46:08.520Z,25.00
2023-08-01T11:49:10.658Z,25.10
2023-08-01T11:52:24.457Z,25.50
2023-08-01T11:55:28.946Z,25.80
2023-08-01T11:58:37.503Z,25.50
2023-08-01T12:01:41.262Z,25.40
2023-08-01T12:04:47.299Z,25.90
2023-08-01T12:07:49.365Z,26.20
2023-08-01T12:10:51.603Z,26.30
2023-08-01T12:14:13.218Z,26.20
2023-08-01T12:17:15.468Z,26.00
2023-08-01T12:20:17.945Z,26.20
2023-08-01T12:23:20.728Z,26.20
2023-08-01T12:26:25.413Z,26.50
2023-08-01T12:29:27.640Z,26.40
2023-08-01T12:32:29.902Z,26.20
2023-08-01T12:35:32.055Z,26.10
2023-08-01T12:38:34.193Z,26.50
2023-08-01T12:41:36.324Z,26.20
2023-08-01T12:44:38.583Z,26.30
2023-08-01T12:47:40.938Z,26.40
2023-08-01T12:50:47.136Z,26.70
2023-08-01T12:53:49.859Z,26.30
2023-08-01T12:56:52.282Z,26.50
2023-08-01T12:59:54.387Z,26.70
2023-08-01T13:02:56.744Z,26.90
2023-08-01T13:05:59.034Z,26.80
2023-08-01T13:09:01.309Z,26.70
2023-08-01T13:12:03.561Z,26.50
2023-08-01T13:15:16.741Z,26.70
2023-08-01T13:18:19.804Z,26.70
2023-08-01T13:21:23.661Z,26.40
2023-08-01T13:24:25.677Z,26.50
2023-08-01T13:27:29.944Z,26.70
2023-08-01T13:30:32.094Z,26.50
2023-08-01T13:33:34.228Z,26.60
2023-08-01T13:36:36.298Z,26.40
2023-08-01T13:39:38.472Z,26.50
2023-08-01T13:42:41.730Z,26.60
2023-08-01T13:45:43.765Z,26.30
2023-08-01T13:48:46.579Z,26.20
2023-08-01T13:51:48.604Z,26.10
2023-08-01T13:54:50.604Z,25.90
2023-08-01T13:57:52.877Z,26.00
2023-08-01T14:00:55.258Z,26.20
2023-08-01T14:03:57.367Z,26.50
2023-08-01T14:06:59.423Z,26.50
2023-08-01T14:10:01.435Z,26.30
2023-08-01T14:13:03.473Z,26.10
2023-08-01T14:16:05.833Z,26.40
2023-08-01T14:19:07.901Z,26.50
2023-08-01T14:22:09.905Z,26.70
2023-08-01T14:25:11.976Z,26.20
2023-08-01T14:28:14.223Z,26.00
2023-08-01T14:31:16.376Z,26.00
2023-08-01T14:34:18.544Z,25.90
2023-08-01T14:37:20.722Z,25.90
2023-08-01T14:40:26.796Z,25.50
2023-08-01T14:43:28.921Z,25.50
2023-08-01T14:46:31.044Z,25.70
2023-08-01T14:49:35.637Z,26.00
2023-08-01T14:52:37.860Z,26.00
2023-08-01T14:55:42.803Z,25.70
2023-08-01T14:58:45.289Z,25.50
2023-08-01T15:01:47.418Z,25.70
2023-08-01T15:04:54.275Z,25.90
2023-08-01T15:07:56.836Z,25.70
2023-08-01T15:10:59.441Z,25.50
2023-08-01T15:14:01.991Z,25.40
2023-08-01T15:17:05.189Z,25.20
2023-08-01T15:20:07.740Z,25.20
2023-08-01T15:23:10.477Z,25.20
2023-08-01T15:26:12.797Z,25.10
2023-08-01T15:29:16.310Z,25.30
2023-08-01T15:32:19.372Z,25.20
2023-08-01T15:35:26.346Z,25.10
2023-08-01T15:38:28.573Z,25.00
2023-08-01T15:41:30.847Z,25.10
2023-08-01T15:44:35.795Z,25.50
2023-08-01T15:47:38.001Z,25.60
2023-08-01T15:50:40.242Z,25.60
2023-08-01T15:53:42.454Z,25.50
2023-08-01T15:56:44.653Z,25.50
2023-08-01T15:59:49.301Z,25.30
2023-08-01T16:02:51.570Z,25.20
2023-08-01T16:05:55.064Z,25.20
2023-08-01T16:08:57.199Z,25.00
2023-08-01T16:11:59.314Z,24.90
2023-08-01T16:15:02.017Z,25.00
2023-08-01T16:18:04.510Z,25.20
2023-08-01T16:21:06.822Z,25.10
2023-08-01T16:24:09.074Z,25.10
2023-08-01T16:27:11.322Z,25.00
2023-08-01T16:30:13.593Z,25.00
2023-08-01T16:33:15.788Z,25.00
2023-08-01T16:36:17.906Z,25.10
2023-08-01T16:39:20.219Z,25.00
2023-08-01T16:42:22.684Z,25.20
2023-08-01T16:45:25.076Z,25.40
2023-08-01T16:48:27.391Z,25.50
2023-08-01T16:51:29.745Z,25.30
2023-08-01T16:54:32.043Z,25.20
2023-08-01T16:57:34.255Z,25.10
2023-08-01T17:00:36.457Z,25.00
2023-08-01T17:03:38.626Z,24.80
2023-08-01T17:06:41.200Z,24.90
2023-08-01T17:09:43.603Z,25.00
2023-08-01T17:12:45.751Z,24.90
2023-08-01T17:15:47.837Z,24.80
2023-08-01T17:18:49.966Z,24.80
2023-08-01T17:21:54.398Z,24.70
2023-08-01T17:24:56.626Z,24.60
2023-08-01T17:27:58.811Z,24.50
2023-08-01T17:31:07.053Z,24.50
2023-08-01T17:34:09.281Z,24.50
2023-08-01T17:37:11.592Z,24.40
2023-08-01T17:40:14.331Z,24.20
2023-08-01T17:43:16.930Z,24.00
2023-08-01T17:46:19.388Z,24.00
2023-08-01T17:49:21.536Z,23.80
2023-08-01T17:52:24.049Z,23.70
2023-08-01T17:55:26.210Z,23.60
2023-08-01T17:58:28.291Z,23.60
2023-08-01T18:01:30.552Z,23.70
2023-08-01T18:04:34.182Z,23.70
2023-08-01T18:07:36.400Z,23.70
2023-08-01T18:10:39.003Z,23.70
2023-08-01T18:13:46.230Z,23.70
2023-08-01T18:16:50.688Z,23.70
2023-08-01T18:19:53.443Z,23.50
2023-08-01T18:22:55.772Z,23.40
2023-08-01T18:25:58.145Z,23.40
2023-08-01T18:29:00.293Z,23.30
2023-08-01T18:32:05.363Z,23.30
2023-08-01T18:35:08.175Z,23.20
2023-08-01T18:38:12.564Z,23.20
2023-08-01T18:41:14.771Z,23.10
2023-08-01T18:44:17.061Z,23.10
2023-08-01T18:47:19.500Z,23.10
2023-08-01T18:50:21.672Z,23.00
2023-08-01T18:53:24.229Z,23.00
2023-08-01T18:56:26.243Z,22.90
2023-08-01T18:59:28.248Z,22.90
2023-08-01T19:02:31.496Z,22.80
2023-08-01T19:05:33.627Z,22.70
2023-08-01T19:08:35.805Z,22.60
2023-08-01T19:11:38.038Z,22.70
2023-08-01T19:14:40.075Z,22.50
2023-08-01T19:17:42.366Z,22.40
2023-08-01T19:20:44.462Z,22.40
2023-08-01T19:23:46.503Z,22.40
2023-08-01T19:26:48.573Z,22.30
2023-08-01T19:29:52.373Z,22.20
2023-08-01T19:32:55.645Z,22.00
2023-08-01T19:35:57.702Z,22.00
2023-08-01T19:38:59.727Z,21.90
2023-08-01T19:42:01.739Z,21.70
2023-08-01T19:45:04.109Z,21.60
2023-08-01T19:48:07.290Z,21.70
2023-08-01T19:51:09.334Z,21.60
2023-08-01T19:54:11.319Z,21.50
2023-08-01T19:57:13.309Z,21.50
2023-08-01T20:00:15.381Z,21.50
2023-08-01T20:03:18.720Z,21.60
2023-08-01T20:06:21.340Z,21.60
2023-08-01T20:09:24.741Z,21.70
2023-08-01T20:12:27.371Z,21.60
2023-08-01T20:15:29.571Z,21.50
2023-08-01T20:18:31.886Z,21.50
2023-08-01T20:21:34.202Z,21.50
2023-08-01T20:24:38.699Z,21.40
2023-08-01T20:27:40.692Z,21.40
2023-08-01T20:30:43.251Z,21.40
2023-08-01T20:33:45.236Z,21.40
2023-08-01T20:36:47.478Z,21.20
2023-08-01T20:39:49.528Z,21.20
2023-08-01T20:42:52.215Z,21.20
2023-08-01T20:45:54.221Z,21.10
2023-08-01T20:48:57.394Z,21.00
2023-08-01T20:51:59.898Z,21.00
2023-08-01T20:55:02.848Z,21.00
2023-08-01T20:58:05.274Z,21.00
2023-08-01T21:01:07.461Z,21.10
2023-08-01T21:04:11.819Z,21.20
2023-08-01T21:07:16.563Z,21.10
2023-08-01T21:10:23.073Z,21.10
2023-08-01T21:13:26.166Z,21.10
2023-08-01T21:16:28.480Z,21.10
2023-08-01T21:19:30.836Z,21.00
2023-08-01T21:22:36.784Z,21.00
2023-08-01T21:25:38.829Z,20.90
2023-08-01T21:28:41.085Z,20.90
2023-08-01T21:31:44.810Z,21.00
2023-08-01T21:34:47.197Z,20.90
2023-08-01T21:37:49.198Z,20.80
2023-08-01T21:40:51.160Z,20.90
2023-08-01T21:43:53.262Z,20.90
2023-08-01T21:46:55.339Z,21.00
2023-08-01T21:49:57.368Z,20.90
2023-08-01T21:52:59.372Z,20.90
2023-08-01T21:56:01.445Z,20.90
2023-08-01T21:59:03.468Z,20.90
2023-08-01T22:02:05.510Z,20.80
2023-08-01T22:05:09.052Z,20.80
2023-08-01T22:08:11.385Z,20.90
2023-08-01T22:11:15.956Z,20.70
2023-08-01T22:14:18.289Z,20.80
2023-08-01T22:17:20.763Z,20.70
2023-08-01T22:20:23.314Z,20.70
2023-08-01T22:23:25.536Z,20.70
2023-08-01T22:26:27.566Z,20.50
2023-08-01T22:29:29.536Z,20.60
2023-08-01T22:32:32.603Z,20.80
2023-08-01T22:35:34.684Z,20.70
2023-08-01T22:38:36.787Z,20.50
2023-08-01T22:41:38.933Z,20.50
2023-08-01T22:44:40.961Z,20.50
2023-08-01T22:47:42.938Z,20.40
2023-08-01T22:50:45.268Z,20.50
2023-08-01T22:53:50.098Z,20.40
2023-08-01T22:56:52.198Z,20.40
2023-08-01T22:59:54.267Z,20.40
2023-08-01T23:02:56.720Z,20.30
2023-08-01T23:05:58.874Z,20.30
2023-08-01T23:09:00.870Z,20.30
2023-08-01T23:12:03.309Z,20.20
2023-08-01T23:15:07.964Z,20.20
2023-08-01T23:18:09.998Z,20.00
2023-08-01T23:21:11.945Z,19.90
2023-08-01T23:24:13.989Z,19.90
2023-08-01T23:27:16.149Z,19.80
2023-08-01T23:30:18.352Z,19.80
2023-08-01T23:33:20.369Z,19.90
2023-08-01T23:36:22.322Z,19.80
2023-08-01T23:39:24.385Z,19.70
2023-08-01T23:42:26.456Z,19.70
2023-08-01T23:45:28.528Z,19.70
2023-08-01T23:48:30.507Z,19.70
2023-08-01T23:51:32.828Z,19.70
2023-08-01T23:54:34.825Z,19.80
2023-08-01T23:57:36.906Z,19.80
